LFOK 301030Z AUTO 07015KT 050V110 CAVOK 21/06 Q1021 NOSIG

ElémentsDécodage
LFOK Station météo située sur l'aérodrome de CHALONS Vatry
301030Z émis le 30 du mois à 10h30 UTC
AUTO Bulletin édité par un automate
07015KT vent du 070°, 15 noeuds
050V110 vent de direction variable entre 050° et 110°
CAVOK Ceiling And Visibility OK
- Visibilité de 10 Km ou plus
- Pas de nuage au-dessous de 1500m ou au-dessous de l'altitude minimale du secteur la plus élevée (si>1500m) et absence de CB
- pas de temps présent significatif
21/06 température 21°C, point de rosée 06°C
 soit une humidité relative de 38%
Q1021 la pression au niveau de la mer (QNH) est de 1021 hPa
NOSIG Pas de changement significatif prévu au cours des deux heures suivant l'heure de l'observation